sensor_id;sensor_type;location;lat;lon;timestamp;P1;durP1;ratioP1;P2;durP2;ratioP2
18818;SDS011;9537;45.594;9.294;2023-11-21T00:00:47;40.73;;;26.80;;
18818;SDS011;9537;45.594;9.294;2023-11-21T00:01:49;40.03;;;27.00;;
18818;SDS011;9537;45.594;9.294;2023-11-21T00:02:49;35.07;;;26.20;;
18818;SDS011;9537;45.594;9.294;2023-11-21T00:03:51;36.40;;;26.37;;
18818;SDS011;9537;45.594;9.294;2023-11-21T00:04:54;39.00;;;27.70;;
18818;SDS011;9537;45.594;9.294;2023-11-21T00:05:56;40.83;;;28.53;;
18818;SDS011;9537;45.594;9.294;2023-11-21T00:06:57;40.30;;;27.23;;
18818;SDS011;9537;45.594;9.294;2023-11-21T00:07:59;39.33;;;26.97;;
18818;SDS011;9537;45.594;9.294;2023-11-21T00:09:00;38.90;;;27.47;;
18818;SDS011;9537;45.594;9.294;2023-11-21T00:10:01;40.33;;;29.27;;
18818;SDS011;9537;45.594;9.294;2023-11-21T00:11:04;37.87;;;27.83;;
18818;SDS011;9537;45.594;9.294;2023-11-21T00:12:06;37.60;;;27.27;;
18818;SDS011;9537;45.594;9.294;2023-11-21T00:13:10;38.43;;;28.23;;
18818;SDS011;9537;45.594;9.294;2023-11-21T00:14:12;43.37;;;28.03;;
18818;SDS011;9537;45.594;9.294;2023-11-21T00:15:17;38.27;;;27.33;;
18818;SDS011;9537;45.594;9.294;2023-11-21T00:16:20;37.43;;;26.97;;
18818;SDS011;9537;45.594;9.294;2023-11-21T00:17:22;37.00;;;26.63;;
18818;SDS011;9537;45.594;9.294;2023-11-21T00:18:24;37.40;;;25.87;;
18818;SDS011;9537;45.594;9.294;2023-11-21T00:19:25;44.60;;;27.03;;
18818;SDS011;9537;45.594;9.294;2023-11-21T00:20:27;37.43;;;26.27;;
18818;SDS011;9537;45.594;9.294;2023-11-21T00:21:27;39.27;;;27.87;;
18818;SDS011;9537;45.594;9.294;2023-11-21T00:22:28;32.93;;;25.43;;
18818;SDS011;9537;45.594;9.294;2023-11-21T00:23:30;36.33;;;26.13;;
18818;SDS011;9537;45.594;9.294;2023-11-21T00:24:31;46.00;;;28.43;;
18818;SDS011;9537;45.594;9.294;2023-11-21T00:25:33;37.60;;;27.43;;
18818;SDS011;9537;45.594;9.294;2023-11-21T00:26:35;36.97;;;25.37;;
18818;SDS011;9537;45.594;9.294;2023-11-21T00:27:38;38.73;;;27.37;;
18818;SDS011;9537;45.594;9.294;2023-11-21T00:28:38;35.57;;;26.40;;
18818;SDS011;9537;45.594;9.294;2023-11-21T00:29:40;37.03;;;26.07;;
18818;SDS011;9537;45.594;9.294;2023-11-21T00:30:41;36.53;;;25.47;;
18818;SDS011;9537;45.594;9.294;2023-11-21T00:31:43;38.03;;;26.60;;
18818;SDS011;9537;45.594;9.294;2023-11-21T00:32:43;36.77;;;25.67;;
18818;SDS011;9537;45.594;9.294;2023-11-21T00:33:45;40.67;;;26.47;;
18818;SDS011;9537;45.594;9.294;2023-11-21T00:34:46;38.03;;;26.27;;
18818;SDS011;9537;45.594;9.294;2023-11-21T00:35:47;38.80;;;25.63;;
18818;SDS011;9537;45.594;9.294;2023-11-21T00:36:49;38.13;;;27.63;;
18818;SDS011;9537;45.594;9.294;2023-11-21T00:37:50;38.43;;;26.87;;
18818;SDS011;9537;45.594;9.294;2023-11-21T00:38:52;39.87;;;26.80;;
18818;SDS011;9537;45.594;9.294;2023-11-21T00:39:53;37.87;;;26.77;;
18818;SDS011;9537;45.594;9.294;2023-11-21T00:40:53;40.10;;;26.80;;
18818;SDS011;9537;45.594;9.294;2023-11-21T00:41:58;36.47;;;26.87;;
18818;SDS011;9537;45.594;9.294;2023-11-21T00:43:00;39.57;;;27.93;;
18818;SDS011;9537;45.594;9.294;2023-11-21T00:44:02;37.13;;;26.10;;
18818;SDS011;9537;45.594;9.294;2023-11-21T00:45:03;39.33;;;27.30;;
18818;SDS011;9537;45.594;9.294;2023-11-21T00:46:06;39.67;;;27.73;;
18818;SDS011;9537;45.594;9.294;2023-11-21T00:47:07;38.67;;;26.77;;
18818;SDS011;9537;45.594;9.294;2023-11-21T00:48:09;40.33;;;28.27;;
18818;SDS011;9537;45.594;9.294;2023-11-21T00:49:10;39.30;;;26.43;;
18818;SDS011;9537;45.594;9.294;2023-11-21T00:50:11;39.97;;;27.70;;
18818;SDS011;9537;45.594;9.294;2023-11-21T00:51:12;38.03;;;28.03;;
18818;SDS011;9537;45.594;9.294;2023-11-21T00:52:13;38.20;;;27.40;;
18818;SDS011;9537;45.594;9.294;2023-11-21T00:53:14;38.17;;;26.60;;
18818;SDS011;9537;45.594;9.294;2023-11-21T00:54:17;42.40;;;28.63;;
18818;SDS011;9537;45.594;9.294;2023-11-21T00:55:17;41.73;;;27.37;;
18818;SDS011;9537;45.594;9.294;2023-11-21T00:56:19;37.60;;;26.67;;
18818;SDS011;9537;45.594;9.294;2023-11-21T00:57:21;38.87;;;26.07;;
18818;SDS011;9537;45.594;9.294;2023-11-21T00:58:22;39.97;;;27.03;;
18818;SDS011;9537;45.594;9.294;2023-11-21T00:59:24;39.63;;;28.00;;
18818;SDS011;9537;45.594;9.294;2023-11-21T01:00:25;38.10;;;27.53;;
18818;SDS011;9537;45.594;9.294;2023-11-21T01:01:27;40.90;;;28.40;;
18818;SDS011;9537;45.594;9.294;2023-11-21T01:02:28;39.63;;;27.67;;
18818;SDS011;9537;45.594;9.294;2023-11-21T01:03:29;37.80;;;26.63;;
18818;SDS011;9537;45.594;9.294;2023-11-21T01:04:30;38.63;;;27.53;;
18818;SDS011;9537;45.594;9.294;2023-11-21T01:05:33;38.33;;;26.53;;
18818;SDS011;9537;45.594;9.294;2023-11-21T01:06:34;42.47;;;28.23;;
18818;SDS011;9537;45.594;9.294;2023-11-21T01:07:36;38.03;;;26.83;;
18818;SDS011;9537;45.594;9.294;2023-11-21T01:08:37;43.53;;;28.07;;
18818;SDS011;9537;45.594;9.294;2023-11-21T01:09:39;35.80;;;25.97;;
18818;SDS011;9537;45.594;9.294;2023-11-21T01:10:39;36.87;;;25.97;;
18818;SDS011;9537;45.594;9.294;2023-11-21T01:11:41;36.23;;;25.47;;
18818;SDS011;9537;45.594;9.294;2023-11-21T01:12:44;39.97;;;26.80;;
18818;SDS011;9537;45.594;9.294;2023-11-21T01:13:46;38.03;;;26.90;;
18818;SDS011;9537;45.594;9.294;2023-11-21T01:14:47;39.33;;;27.10;;
18818;SDS011;9537;45.594;9.294;2023-11-21T01:15:49;37.80;;;27.27;;
18818;SDS011;9537;45.594;9.294;2023-11-21T01:16:50;39.23;;;26.40;;
18818;SDS011;9537;45.594;9.294;2023-11-21T01:17:52;40.30;;;26.87;;
18818;SDS011;9537;45.594;9.294;2023-11-21T01:18:53;41.67;;;28.60;;
18818;SDS011;9537;45.594;9.294;2023-11-21T01:19:54;37.07;;;27.00;;
18818;SDS011;9537;45.594;9.294;2023-11-21T01:20:56;43.23;;;28.00;;
18818;SDS011;9537;45.594;9.294;2023-11-21T01:22:00;41.00;;;27.63;;
18818;SDS011;9537;45.594;9.294;2023-11-21T01:23:01;42.87;;;26.83;;
18818;SDS011;9537;45.594;9.294;2023-11-21T01:24:03;39.93;;;26.17;;
18818;SDS011;9537;45.594;9.294;2023-11-21T01:25:07;39.50;;;26.07;;
18818;SDS011;9537;45.594;9.294;2023-11-21T01:26:11;41.87;;;27.23;;
18818;SDS011;9537;45.594;9.294;2023-11-21T01:27:11;39.07;;;26.63;;
18818;SDS011;9537;45.594;9.294;2023-11-21T01:28:15;40.57;;;26.50;;
18818;SDS011;9537;45.594;9.294;2023-11-21T01:29:15;44.80;;;26.40;;
18818;SDS011;9537;45.594;9.294;2023-11-21T01:30:17;42.30;;;27.20;;
18818;SDS011;9537;45.594;9.294;2023-11-21T01:31:18;39.53;;;26.53;;
18818;SDS011;9537;45.594;9.294;2023-11-21T01:32:20;42.50;;;27.10;;
18818;SDS011;9537;45.594;9.294;2023-11-21T01:33:21;36.20;;;25.37;;
18818;SDS011;9537;45.594;9.294;2023-11-21T01:34:25;39.23;;;25.63;;
18818;SDS011;9537;45.594;9.294;2023-11-21T01:35:28;37.33;;;25.90;;
18818;SDS011;9537;45.594;9.294;2023-11-21T01:36:30;39.07;;;25.40;;
18818;SDS011;9537;45.594;9.294;2023-11-21T01:37:32;39.47;;;26.03;;
18818;SDS011;9537;45.594;9.294;2023-11-21T01:38:34;39.57;;;26.53;;
18818;SDS011;9537;45.594;9.294;2023-11-21T01:39:35;39.77;;;25.87;;
18818;SDS011;9537;45.594;9.294;2023-11-21T01:40:39;40.23;;;25.57;;
18818;SDS011;9537;45.594;9.294;2023-11-21T01:41:41;37.30;;;25.60;;
18818;SDS011;9537;45.594;9.294;2023-11-21T01:42:45;36.00;;;24.10;;
18818;SDS011;9537;45.594;9.294;2023-11-21T01:43:50;34.47;;;24.10;;
18818;SDS011;9537;45.594;9.294;2023-11-21T01:44:53;36.77;;;24.23;;
18818;SDS011;9537;45.594;9.294;2023-11-21T01:45:54;44.60;;;26.43;;
18818;SDS011;9537;45.594;9.294;2023-11-21T01:46:57;35.23;;;25.27;;
18818;SDS011;9537;45.594;9.294;2023-11-21T01:47:58;38.00;;;24.90;;
18818;SDS011;9537;45.594;9.294;2023-11-21T01:49:00;39.57;;;25.20;;
18818;SDS011;9537;45.594;9.294;2023-11-21T01:50:01;38.30;;;25.20;;
18818;SDS011;9537;45.594;9.294;2023-11-21T01:51:04;37.83;;;23.73;;
18818;SDS011;9537;45.594;9.294;2023-11-21T01:52:07;35.77;;;23.83;;
18818;SDS011;9537;45.594;9.294;2023-11-21T01:53:08;37.43;;;24.63;;
18818;SDS011;9537;45.594;9.294;2023-11-21T01:54:13;37.17;;;24.23;;
18818;SDS011;9537;45.594;9.294;2023-11-21T01:55:14;38.10;;;22.73;;
18818;SDS011;9537;45.594;9.294;2023-11-21T01:56:19;33.93;;;22.60;;
18818;SDS011;9537;45.594;9.294;2023-11-21T01:57:20;35.17;;;23.93;;
18818;SDS011;9537;45.594;9.294;2023-11-21T01:58:22;38.87;;;23.73;;
18818;SDS011;9537;45.594;9.294;2023-11-21T01:59:25;39.50;;;23.13;;
18818;SDS011;9537;45.594;9.294;2023-11-21T02:00:28;37.43;;;23.40;;
18818;SDS011;9537;45.594;9.294;2023-11-21T02:01:29;35.80;;;21.33;;
18818;SDS011;9537;45.594;9.294;2023-11-21T02:02:32;38.50;;;23.97;;
18818;SDS011;9537;45.594;9.294;2023-11-21T02:03:33;33.97;;;22.83;;
18818;SDS011;9537;45.594;9.294;2023-11-21T02:04:35;38.43;;;22.67;;
18818;SDS011;9537;45.594;9.294;2023-11-21T02:05:37;40.23;;;23.73;;
18818;SDS011;9537;45.594;9.294;2023-11-21T02:06:38;36.00;;;21.87;;
18818;SDS011;9537;45.594;9.294;2023-11-21T02:07:40;37.20;;;23.00;;
18818;SDS011;9537;45.594;9.294;2023-11-21T02:08:42;39.00;;;21.73;;
18818;SDS011;9537;45.594;9.294;2023-11-21T02:09:44;39.57;;;23.93;;
18818;SDS011;9537;45.594;9.294;2023-11-21T02:10:45;33.83;;;21.70;;
18818;SDS011;9537;45.594;9.294;2023-11-21T02:11:47;35.57;;;22.23;;
18818;SDS011;9537;45.594;9.294;2023-11-21T02:12:49;34.03;;;21.20;;
18818;SDS011;9537;45.594;9.294;2023-11-21T02:13:50;35.13;;;21.17;;
18818;SDS011;9537;45.594;9.294;2023-11-21T02:14:55;35.60;;;23.13;;
18818;SDS011;9537;45.594;9.294;2023-11-21T02:15:56;35.40;;;21.80;;
18818;SDS011;9537;45.594;9.294;2023-11-21T02:16:58;34.97;;;21.03;;
18818;SDS011;9537;45.594;9.294;2023-11-21T02:17:59;32.57;;;21.30;;
18818;SDS011;9537;45.594;9.294;2023-11-21T02:19:01;33.27;;;21.20;;
18818;SDS011;9537;45.594;9.294;2023-11-21T02:20:04;33.03;;;22.50;;
18818;SDS011;9537;45.594;9.294;2023-11-21T02:21:06;34.93;;;21.37;;
18818;SDS011;9537;45.594;9.294;2023-11-21T02:22:10;35.10;;;22.83;;
18818;SDS011;9537;45.594;9.294;2023-11-21T02:23:13;41.27;;;22.60;;
18818;SDS011;9537;45.594;9.294;2023-11-21T02:24:15;39.33;;;21.90;;
18818;SDS011;9537;45.594;9.294;2023-11-21T02:25:17;36.60;;;21.83;;
18818;SDS011;9537;45.594;9.294;2023-11-21T02:26:18;40.03;;;23.23;;
18818;SDS011;9537;45.594;9.294;2023-11-21T02:27:20;33.37;;;21.90;;
18818;SDS011;9537;45.594;9.294;2023-11-21T02:28:23;33.67;;;21.40;;
18818;SDS011;9537;45.594;9.294;2023-11-21T02:29:26;38.87;;;22.90;;
18818;SDS011;9537;45.594;9.294;2023-11-21T02:30:28;32.03;;;21.90;;
18818;SDS011;9537;45.594;9.294;2023-11-21T02:31:31;36.20;;;22.60;;
18818;SDS011;9537;45.594;9.294;2023-11-21T02:32:33;44.37;;;24.03;;
18818;SDS011;9537;45.594;9.294;2023-11-21T02:33:40;36.53;;;23.37;;
18818;SDS011;9537;45.594;9.294;2023-11-21T02:34:40;41.97;;;24.17;;
18818;SDS011;9537;45.594;9.294;2023-11-21T02:35:43;36.33;;;21.53;;
18818;SDS011;9537;45.594;9.294;2023-11-21T02:36:45;40.27;;;22.17;;
18818;SDS011;9537;45.594;9.294;2023-11-21T02:37:47;34.83;;;21.77;;
18818;SDS011;9537;45.594;9.294;2023-11-21T02:38:50;31.37;;;20.47;;
18818;SDS011;9537;45.594;9.294;2023-11-21T02:39:52;30.80;;;20.87;;
18818;SDS011;9537;45.594;9.294;2023-11-21T02:40:52;33.80;;;20.50;;
18818;SDS011;9537;45.594;9.294;2023-11-21T02:41:54;34.53;;;20.57;;
18818;SDS011;9537;45.594;9.294;2023-11-21T02:42:55;30.67;;;19.53;;
18818;SDS011;9537;45.594;9.294;2023-11-21T02:43:59;36.37;;;20.97;;
18818;SDS011;9537;45.594;9.294;2023-11-21T02:44:59;37.30;;;21.43;;
18818;SDS011;9537;45.594;9.294;2023-11-21T02:46:00;34.47;;;21.43;;
18818;SDS011;9537;45.594;9.294;2023-11-21T02:47:02;31.93;;;21.23;;
18818;SDS011;9537;45.594;9.294;2023-11-21T02:48:04;31.33;;;20.20;;
18818;SDS011;9537;45.594;9.294;2023-11-21T02:49:08;36.20;;;20.93;;
18818;SDS011;9537;45.594;9.294;2023-11-21T02:50:10;35.43;;;21.00;;
18818;SDS011;9537;45.594;9.294;2023-11-21T02:51:11;36.33;;;21.93;;
18818;SDS011;9537;45.594;9.294;2023-11-21T02:52:13;33.27;;;20.53;;
18818;SDS011;9537;45.594;9.294;2023-11-21T02:53:14;35.47;;;22.60;;
18818;SDS011;9537;45.594;9.294;2023-11-21T02:54:17;34.30;;;20.90;;
18818;SDS011;9537;45.594;9.294;2023-11-21T02:55:17;32.87;;;20.17;;
18818;SDS011;9537;45.594;9.294;2023-11-21T02:56:18;35.07;;;20.90;;
18818;SDS011;9537;45.594;9.294;2023-11-21T02:57:20;37.23;;;21.33;;
18818;SDS011;9537;45.594;9.294;2023-11-21T02:58:21;36.50;;;21.43;;
18818;SDS011;9537;45.594;9.294;2023-11-21T02:59:23;35.20;;;22.10;;
18818;SDS011;9537;45.594;9.294;2023-11-21T03:00:23;30.60;;;20.53;;
18818;SDS011;9537;45.594;9.294;2023-11-21T03:01:26;33.40;;;21.37;;
18818;SDS011;9537;45.594;9.294;2023-11-21T03:02:28;34.27;;;21.93;;
18818;SDS011;9537;45.594;9.294;2023-11-21T03:03:29;35.20;;;21.97;;
18818;SDS011;9537;45.594;9.294;2023-11-21T03:04:31;32.93;;;21.20;;
18818;SDS011;9537;45.594;9.294;2023-11-21T03:05:32;36.97;;;21.23;;
18818;SDS011;9537;45.594;9.294;2023-11-21T03:06:35;30.43;;;20.93;;
18818;SDS011;9537;45.594;9.294;2023-11-21T03:07:36;38.53;;;21.50;;
18818;SDS011;9537;45.594;9.294;2023-11-21T03:08:37;35.23;;;20.90;;
18818;SDS011;9537;45.594;9.294;2023-11-21T03:09:40;34.00;;;21.90;;
18818;SDS011;9537;45.594;9.294;2023-11-21T03:10:41;35.70;;;21.47;;
18818;SDS011;9537;45.594;9.294;2023-11-21T03:11:43;33.40;;;20.33;;
18818;SDS011;9537;45.594;9.294;2023-11-21T03:12:43;31.97;;;20.73;;
18818;SDS011;9537;45.594;9.294;2023-11-21T03:13:45;37.93;;;21.37;;
18818;SDS011;9537;45.594;9.294;2023-11-21T03:14:46;36.23;;;21.77;;
18818;SDS011;9537;45.594;9.294;2023-11-21T03:15:48;41.20;;;22.33;;
18818;SDS011;9537;45.594;9.294;2023-11-21T03:16:48;38.50;;;20.93;;
18818;SDS011;9537;45.594;9.294;2023-11-21T03:17:50;32.60;;;21.57;;
18818;SDS011;9537;45.594;9.294;2023-11-21T03:18:52;40.80;;;21.53;;
18818;SDS011;9537;45.594;9.294;2023-11-21T03:19:53;28.63;;;20.93;;
18818;SDS011;9537;45.594;9.294;2023-11-21T03:20:55;34.97;;;21.30;;
18818;SDS011;9537;45.594;9.294;2023-11-21T03:21:56;43.87;;;21.73;;
18818;SDS011;9537;45.594;9.294;2023-11-21T03:22:57;35.07;;;21.40;;
18818;SDS011;9537;45.594;9.294;2023-11-21T03:23:59;41.20;;;22.93;;
18818;SDS011;9537;45.594;9.294;2023-11-21T03:25:03;36.90;;;22.03;;
18818;SDS011;9537;45.594;9.294;2023-11-21T03:26:05;37.40;;;21.87;;
18818;SDS011;9537;45.594;9.294;2023-11-21T03:27:08;35.80;;;21.67;;
18818;SDS011;9537;45.594;9.294;2023-11-21T03:28:09;32.37;;;21.07;;
18818;SDS011;9537;45.594;9.294;2023-11-21T03:29:11;36.87;;;20.90;;
18818;SDS011;9537;45.594;9.294;2023-11-21T03:30:12;33.50;;;21.10;;
18818;SDS011;9537;45.594;9.294;2023-11-21T03:31:13;31.00;;;21.67;;
18818;SDS011;9537;45.594;9.294;2023-11-21T03:32:17;34.80;;;21.93;;
18818;SDS011;9537;45.594;9.294;2023-11-21T03:33:19;39.30;;;23.37;;
18818;SDS011;9537;45.594;9.294;2023-11-21T03:34:23;32.30;;;21.93;;
18818;SDS011;9537;45.594;9.294;2023-11-21T03:35:26;39.03;;;23.03;;
18818;SDS011;9537;45.594;9.294;2023-11-21T03:36:28;33.37;;;22.33;;
18818;SDS011;9537;45.594;9.294;2023-11-21T03:37:29;34.93;;;21.47;;
18818;SDS011;9537;45.594;9.294;2023-11-21T03:38:30;34.33;;;21.30;;
18818;SDS011;9537;45.594;9.294;2023-11-21T03:39:31;32.53;;;21.20;;
18818;SDS011;9537;45.594;9.294;2023-11-21T03:40:35;32.73;;;21.53;;
18818;SDS011;9537;45.594;9.294;2023-11-21T03:41:35;36.23;;;21.90;;
18818;SDS011;9537;45.594;9.294;2023-11-21T03:42:37;35.13;;;22.20;;
18818;SDS011;9537;45.594;9.294;2023-11-21T03:43:38;33.33;;;22.27;;
18818;SDS011;9537;45.594;9.294;2023-11-21T03:44:39;33.77;;;21.47;;
18818;SDS011;9537;45.594;9.294;2023-11-21T03:45:40;37.20;;;23.20;;
18818;SDS011;9537;45.594;9.294;2023-11-21T03:46:41;35.97;;;22.83;;
18818;SDS011;9537;45.594;9.294;2023-11-21T03:47:43;37.00;;;22.63;;
18818;SDS011;9537;45.594;9.294;2023-11-21T03:48:44;41.73;;;22.50;;
18818;SDS011;9537;45.594;9.294;2023-11-21T03:49:46;38.37;;;23.37;;
18818;SDS011;9537;45.594;9.294;2023-11-21T03:50:47;38.37;;;24.90;;
18818;SDS011;9537;45.594;9.294;2023-11-21T03:51:48;34.27;;;22.57;;
18818;SDS011;9537;45.594;9.294;2023-11-21T03:52:49;36.50;;;22.50;;
18818;SDS011;9537;45.594;9.294;2023-11-21T03:53:50;37.07;;;23.13;;
18818;SDS011;9537;45.594;9.294;2023-11-21T03:54:52;35.27;;;22.77;;
18818;SDS011;9537;45.594;9.294;2023-11-21T03:55:54;36.07;;;22.50;;
18818;SDS011;9537;45.594;9.294;2023-11-21T03:56:56;36.10;;;22.90;;
18818;SDS011;9537;45.594;9.294;2023-11-21T03:57:57;37.27;;;21.53;;
18818;SDS011;9537;45.594;9.294;2023-11-21T03:58:58;40.43;;;23.00;;
18818;SDS011;9537;45.594;9.294;2023-11-21T03:59:59;33.43;;;22.33;;
18818;SDS011;9537;45.594;9.294;2023-11-21T04:01:01;34.50;;;23.10;;
18818;SDS011;9537;45.594;9.294;2023-11-21T04:02:02;39.03;;;23.57;;
18818;SDS011;9537;45.594;9.294;2023-11-21T04:03:04;39.00;;;22.60;;
18818;SDS011;9537;45.594;9.294;2023-11-21T04:04:05;34.03;;;22.17;;
18818;SDS011;9537;45.594;9.294;2023-11-21T04:05:06;35.87;;;23.20;;
18818;SDS011;9537;45.594;9.294;2023-11-21T04:06:08;34.23;;;21.53;;
18818;SDS011;9537;45.594;9.294;2023-11-21T04:07:10;43.37;;;24.37;;
18818;SDS011;9537;45.594;9.294;2023-11-21T04:08:12;38.40;;;22.13;;
18818;SDS011;9537;45.594;9.294;2023-11-21T04:09:14;41.70;;;22.97;;
18818;SDS011;9537;45.594;9.294;2023-11-21T04:10:15;31.67;;;22.80;;
18818;SDS011;9537;45.594;9.294;2023-11-21T04:11:18;35.33;;;21.70;;
18818;SDS011;9537;45.594;9.294;2023-11-21T04:12:19;39.50;;;22.73;;
18818;SDS011;9537;45.594;9.294;2023-11-21T04:13:21;37.57;;;24.07;;
18818;SDS011;9537;45.594;9.294;2023-11-21T04:14:22;40.03;;;23.77;;
18818;SDS011;9537;45.594;9.294;2023-11-21T04:15:24;33.77;;;22.73;;
18818;SDS011;9537;45.594;9.294;2023-11-21T04:16:25;38.17;;;24.83;;
18818;SDS011;9537;45.594;9.294;2023-11-21T04:17:26;39.50;;;24.43;;
18818;SDS011;9537;45.594;9.294;2023-11-21T04:18:31;36.40;;;23.50;;
18818;SDS011;9537;45.594;9.294;2023-11-21T04:19:32;43.47;;;24.30;;
18818;SDS011;9537;45.594;9.294;2023-11-21T04:20:34;40.93;;;23.43;;
18818;SDS011;9537;45.594;9.294;2023-11-21T04:21:34;34.27;;;22.40;;
18818;SDS011;9537;45.594;9.294;2023-11-21T04:22:37;31.97;;;22.60;;
18818;SDS011;9537;45.594;9.294;2023-11-21T04:23:41;36.07;;;22.67;;
18818;SDS011;9537;45.594;9.294;2023-11-21T04:24:43;32.83;;;21.57;;
18818;SDS011;9537;45.594;9.294;2023-11-21T04:25:44;42.10;;;23.03;;
18818;SDS011;9537;45.594;9.294;2023-11-21T04:26:46;34.60;;;23.43;;
18818;SDS011;9537;45.594;9.294;2023-11-21T04:27:48;37.60;;;24.53;;
18818;SDS011;9537;45.594;9.294;2023-11-21T04:28:49;36.67;;;23.03;;
18818;SDS011;9537;45.594;9.294;2023-11-21T04:29:51;38.03;;;22.33;;
18818;SDS011;9537;45.594;9.294;2023-11-21T04:30:52;38.23;;;22.60;;
18818;SDS011;9537;45.594;9.294;2023-11-21T04:31:53;33.87;;;23.03;;
18818;SDS011;9537;45.594;9.294;2023-11-21T04:32:54;40.80;;;23.07;;
18818;SDS011;9537;45.594;9.294;2023-11-21T04:33:55;34.60;;;22.47;;
18818;SDS011;9537;45.594;9.294;2023-11-21T04:34:57;39.27;;;23.87;;
18818;SDS011;9537;45.594;9.294;2023-11-21T04:35:58;36.80;;;23.27;;
18818;SDS011;9537;45.594;9.294;2023-11-21T04:36:59;34.60;;;22.33;;
18818;SDS011;9537;45.594;9.294;2023-11-21T04:38:01;39.43;;;23.27;;
18818;SDS011;9537;45.594;9.294;2023-11-21T04:39:03;39.47;;;23.87;;
18818;SDS011;9537;45.594;9.294;2023-11-21T04:40:05;34.33;;;22.00;;
18818;SDS011;9537;45.594;9.294;2023-11-21T04:41:07;38.87;;;23.87;;
18818;SDS011;9537;45.594;9.294;2023-11-21T04:42:11;39.67;;;24.13;;
18818;SDS011;9537;45.594;9.294;2023-11-21T04:43:12;45.60;;;24.50;;
18818;SDS011;9537;45.594;9.294;2023-11-21T04:44:14;37.53;;;23.47;;
18818;SDS011;9537;45.594;9.294;2023-11-21T04:45:16;35.37;;;23.97;;
18818;SDS011;9537;45.594;9.294;2023-11-21T04:46:18;39.83;;;24.53;;
18818;SDS011;9537;45.594;9.294;2023-11-21T04:47:19;40.53;;;24.50;;
18818;SDS011;9537;45.594;9.294;2023-11-21T04:48:20;35.67;;;23.63;;
18818;SDS011;9537;45.594;9.294;2023-11-21T04:49:21;35.83;;;23.63;;
18818;SDS011;9537;45.594;9.294;2023-11-21T04:50:23;36.83;;;22.67;;
18818;SDS011;9537;45.594;9.294;2023-11-21T04:51:26;36.20;;;24.20;;
18818;SDS011;9537;45.594;9.294;2023-11-21T04:52:27;37.53;;;24.17;;
18818;SDS011;9537;45.594;9.294;2023-11-21T04:53:29;35.53;;;22.57;;
18818;SDS011;9537;45.594;9.294;2023-11-21T04:54:30;35.10;;;23.87;;
18818;SDS011;9537;45.594;9.294;2023-11-21T04:55:32;45.53;;;24.00;;
18818;SDS011;9537;45.594;9.294;2023-11-21T04:56:33;40.20;;;23.83;;
18818;SDS011;9537;45.594;9.294;2023-11-21T04:57:36;37.03;;;23.60;;
18818;SDS011;9537;45.594;9.294;2023-11-21T04:58:36;35.40;;;22.73;;
18818;SDS011;9537;45.594;9.294;2023-11-21T04:59:40;38.43;;;23.20;;
18818;SDS011;9537;45.594;9.294;2023-11-21T05:00:40;44.17;;;22.93;;
18818;SDS011;9537;45.594;9.294;2023-11-21T05:01:42;42.40;;;24.97;;
18818;SDS011;9537;45.594;9.294;2023-11-21T05:02:43;37.80;;;22.20;;
18818;SDS011;9537;45.594;9.294;2023-11-21T05:03:44;40.57;;;22.90;;
18818;SDS011;9537;45.594;9.294;2023-11-21T05:04:47;46.63;;;24.93;;
18818;SDS011;9537;45.594;9.294;2023-11-21T05:05:48;34.97;;;22.63;;
18818;SDS011;9537;45.594;9.294;2023-11-21T05:06:49;38.93;;;22.63;;
18818;SDS011;9537;45.594;9.294;2023-11-21T05:07:50;37.40;;;23.13;;
18818;SDS011;9537;45.594;9.294;2023-11-21T05:08:53;34.87;;;23.43;;
18818;SDS011;9537;45.594;9.294;2023-11-21T05:09:55;36.73;;;23.37;;
18818;SDS011;9537;45.594;9.294;2023-11-21T05:10:56;35.90;;;23.00;;
18818;SDS011;9537;45.594;9.294;2023-11-21T05:11:58;32.10;;;23.10;;
18818;SDS011;9537;45.594;9.294;2023-11-21T05:13:01;34.90;;;23.33;;
18818;SDS011;9537;45.594;9.294;2023-11-21T05:14:09;32.97;;;22.23;;
18818;SDS011;9537;45.594;9.294;2023-11-21T05:15:13;33.17;;;22.43;;
18818;SDS011;9537;45.594;9.294;2023-11-21T05:16:15;40.90;;;23.60;;
18818;SDS011;9537;45.594;9.294;2023-11-21T05:17:17;36.00;;;22.23;;
18818;SDS011;9537;45.594;9.294;2023-11-21T05:18:17;35.17;;;22.73;;
18818;SDS011;9537;45.594;9.294;2023-11-21T05:19:19;32.50;;;22.23;;
18818;SDS011;9537;45.594;9.294;2023-11-21T05:20:21;32.20;;;22.03;;
18818;SDS011;9537;45.594;9.294;2023-11-21T05:21:23;33.93;;;22.40;;
18818;SDS011;9537;45.594;9.294;2023-11-21T05:22:25;42.03;;;23.63;;
18818;SDS011;9537;45.594;9.294;2023-11-21T05:23:25;34.83;;;22.37;;
18818;SDS011;9537;45.594;9.294;2023-11-21T05:24:27;37.17;;;22.57;;
18818;SDS011;9537;45.594;9.294;2023-11-21T05:25:28;38.60;;;22.20;;
18818;SDS011;9537;45.594;9.294;2023-11-21T05:26:30;35.60;;;21.70;;
18818;SDS011;9537;45.594;9.294;2023-11-21T05:27:31;41.20;;;23.93;;
18818;SDS011;9537;45.594;9.294;2023-11-21T05:28:34;39.63;;;23.83;;
18818;SDS011;9537;45.594;9.294;2023-11-21T05:29:35;37.70;;;23.13;;
18818;SDS011;9537;45.594;9.294;2023-11-21T05:30:38;37.47;;;23.30;;
18818;SDS011;9537;45.594;9.294;2023-11-21T05:31:39;35.97;;;23.00;;
18818;SDS011;9537;45.594;9.294;2023-11-21T05:32:41;36.40;;;23.00;;
18818;SDS011;9537;45.594;9.294;2023-11-21T05:33:42;36.80;;;23.80;;
18818;SDS011;9537;45.594;9.294;2023-11-21T05:34:44;48.70;;;24.77;;
18818;SDS011;9537;45.594;9.294;2023-11-21T05:35:45;37.40;;;23.37;;
18818;SDS011;9537;45.594;9.294;2023-11-21T05:36:46;44.20;;;23.73;;
18818;SDS011;9537;45.594;9.294;2023-11-21T05:37:48;40.07;;;23.60;;
18818;SDS011;9537;45.594;9.294;2023-11-21T05:38:48;41.47;;;23.37;;
18818;SDS011;9537;45.594;9.294;2023-11-21T05:39:50;40.93;;;23.57;;
18818;SDS011;9537;45.594;9.294;2023-11-21T05:40:51;39.20;;;22.73;;
18818;SDS011;9537;45.594;9.294;2023-11-21T05:41:53;41.77;;;23.13;;
18818;SDS011;9537;45.594;9.294;2023-11-21T05:42:54;35.30;;;23.03;;
18818;SDS011;9537;45.594;9.294;2023-11-21T05:43:57;38.50;;;22.47;;
18818;SDS011;9537;45.594;9.294;2023-11-21T05:44:58;31.60;;;21.13;;
18818;SDS011;9537;45.594;9.294;2023-11-21T05:45:59;33.60;;;20.93;;
18818;SDS011;9537;45.594;9.294;2023-11-21T05:47:01;36.97;;;22.63;;
18818;SDS011;9537;45.594;9.294;2023-11-21T05:48:02;38.53;;;23.60;;
18818;SDS011;9537;45.594;9.294;2023-11-21T05:49:04;36.40;;;22.27;;
18818;SDS011;9537;45.594;9.294;2023-11-21T05:50:05;40.17;;;23.83;;
18818;SDS011;9537;45.594;9.294;2023-11-21T05:51:10;39.03;;;22.50;;
18818;SDS011;9537;45.594;9.294;2023-11-21T05:52:12;37.77;;;21.93;;
18818;SDS011;9537;45.594;9.294;2023-11-21T05:53:14;35.50;;;22.23;;
18818;SDS011;9537;45.594;9.294;2023-11-21T05:54:15;36.83;;;23.37;;
18818;SDS011;9537;45.594;9.294;2023-11-21T05:55:17;36.00;;;21.73;;
18818;SDS011;9537;45.594;9.294;2023-11-21T05:56:21;38.60;;;21.93;;
18818;SDS011;9537;45.594;9.294;2023-11-21T05:57:21;35.87;;;24.17;;
18818;SDS011;9537;45.594;9.294;2023-11-21T05:58:23;34.93;;;22.77;;
18818;SDS011;9537;45.594;9.294;2023-11-21T05:59:26;39.27;;;24.40;;
18818;SDS011;9537;45.594;9.294;2023-11-21T06:00:28;36.77;;;22.13;;
18818;SDS011;9537;45.594;9.294;2023-11-21T06:01:28;41.47;;;24.20;;
18818;SDS011;9537;45.594;9.294;2023-11-21T06:02:30;41.77;;;23.23;;
18818;SDS011;9537;45.594;9.294;2023-11-21T06:03:32;43.73;;;23.50;;
18818;SDS011;9537;45.594;9.294;2023-11-21T06:04:33;38.17;;;23.60;;
18818;SDS011;9537;45.594;9.294;2023-11-21T06:05:34;44.00;;;24.47;;
18818;SDS011;9537;45.594;9.294;2023-11-21T06:06:36;45.60;;;24.17;;